Terminal Aerodrome Forecast
Issued by NWS Pendleton, OR

Home | Current Version | Previous Version | Text Only | Print | Product List | Glossary On
Versions: 1 2 3 4 5 6 7 8 9 10 11 12 13 14 15 16 17
194
FTUS46 KPDT 260520
TAFPDT
TAF
KPDT 260520Z 2606/2706 VRB05KT P6SM SCT090 SCT110
     FM261800 32006KT P6SM SCT080 BKN100
     FM270300 VRB05KT P6SM FEW090 SCT250=

USA.gov is the U.S. government's official web portal to all federal, state and local government web resources and services.